sensor_id;sensor_type;location;lat;lon;timestamp;P1;durP1;ratioP1;P2;durP2;ratioP2
81026;SDS011;70506;49.320;8.446;2024-01-07T00:00:02;9.43;;;4.03;;
81026;SDS011;70506;49.320;8.446;2024-01-07T00:02:27;8.73;;;3.58;;
81026;SDS011;70506;49.320;8.446;2024-01-07T00:04:53;8.67;;;3.77;;
81026;SDS011;70506;49.320;8.446;2024-01-07T00:07:18;7.90;;;3.70;;
81026;SDS011;70506;49.320;8.446;2024-01-07T00:09:45;9.30;;;3.03;;
81026;SDS011;70506;49.320;8.446;2024-01-07T00:12:10;8.40;;;3.77;;
81026;SDS011;70506;49.320;8.446;2024-01-07T00:14:36;8.43;;;4.30;;
81026;SDS011;70506;49.320;8.446;2024-01-07T00:17:01;8.13;;;3.75;;
81026;SDS011;70506;49.320;8.446;2024-01-07T00:19:26;10.32;;;3.38;;
81026;SDS011;70506;49.320;8.446;2024-01-07T00:21:52;10.43;;;4.37;;
81026;SDS011;70506;49.320;8.446;2024-01-07T00:24:17;7.63;;;3.93;;
81026;SDS011;70506;49.320;8.446;2024-01-07T00:26:42;7.30;;;3.23;;
81026;SDS011;70506;49.320;8.446;2024-01-07T00:29:08;7.07;;;3.07;;
81026;SDS011;70506;49.320;8.446;2024-01-07T00:31:33;7.77;;;3.53;;
81026;SDS011;70506;49.320;8.446;2024-01-07T00:33:58;7.50;;;3.60;;
81026;SDS011;70506;49.320;8.446;2024-01-07T00:36:24;11.25;;;3.10;;
81026;SDS011;70506;49.320;8.446;2024-01-07T00:38:49;7.00;;;3.00;;
81026;SDS011;70506;49.320;8.446;2024-01-07T00:41:14;5.57;;;2.87;;
81026;SDS011;70506;49.320;8.446;2024-01-07T00:43:40;5.60;;;3.07;;
81026;SDS011;70506;49.320;8.446;2024-01-07T00:46:06;5.57;;;3.03;;
81026;SDS011;70506;49.320;8.446;2024-01-07T00:48:31;7.43;;;3.80;;
81026;SDS011;70506;49.320;8.446;2024-01-07T00:50:56;6.33;;;3.63;;
81026;SDS011;70506;49.320;8.446;2024-01-07T00:53:21;9.37;;;3.60;;
81026;SDS011;70506;49.320;8.446;2024-01-07T00:55:47;10.63;;;3.60;;
81026;SDS011;70506;49.320;8.446;2024-01-07T00:58:12;9.93;;;3.63;;
81026;SDS011;70506;49.320;8.446;2024-01-07T01:00:37;9.80;;;4.27;;
81026;SDS011;70506;49.320;8.446;2024-01-07T01:03:03;11.20;;;4.15;;
81026;SDS011;70506;49.320;8.446;2024-01-07T01:05:28;9.85;;;4.25;;
81026;SDS011;70506;49.320;8.446;2024-01-07T01:07:53;6.67;;;2.77;;
81026;SDS011;70506;49.320;8.446;2024-01-07T01:10:19;7.87;;;3.57;;
81026;SDS011;70506;49.320;8.446;2024-01-07T01:12:45;9.60;;;3.60;;
81026;SDS011;70506;49.320;8.446;2024-01-07T01:15:10;8.43;;;3.77;;
81026;SDS011;70506;49.320;8.446;2024-01-07T01:17:35;10.82;;;3.80;;
81026;SDS011;70506;49.320;8.446;2024-01-07T01:20:01;5.72;;;3.45;;
81026;SDS011;70506;49.320;8.446;2024-01-07T01:22:26;7.55;;;3.72;;
81026;SDS011;70506;49.320;8.446;2024-01-07T01:24:54;7.00;;;3.07;;
81026;SDS011;70506;49.320;8.446;2024-01-07T01:27:21;10.88;;;4.45;;
81026;SDS011;70506;49.320;8.446;2024-01-07T01:29:46;9.02;;;3.90;;
81026;SDS011;70506;49.320;8.446;2024-01-07T01:32:11;7.63;;;3.50;;
81026;SDS011;70506;49.320;8.446;2024-01-07T01:34:37;7.30;;;3.23;;
81026;SDS011;70506;49.320;8.446;2024-01-07T01:37:02;8.13;;;2.93;;
81026;SDS011;70506;49.320;8.446;2024-01-07T01:39:28;6.88;;;3.10;;
81026;SDS011;70506;49.320;8.446;2024-01-07T01:41:53;11.85;;;3.60;;
81026;SDS011;70506;49.320;8.446;2024-01-07T01:44:20;7.47;;;2.70;;
81026;SDS011;70506;49.320;8.446;2024-01-07T01:46:45;5.23;;;2.83;;
81026;SDS011;70506;49.320;8.446;2024-01-07T01:49:11;6.35;;;3.08;;
81026;SDS011;70506;49.320;8.446;2024-01-07T01:51:37;10.23;;;2.85;;
81026;SDS011;70506;49.320;8.446;2024-01-07T01:54:02;7.63;;;2.73;;
81026;SDS011;70506;49.320;8.446;2024-01-07T01:56:28;5.97;;;2.63;;
81026;SDS011;70506;49.320;8.446;2024-01-07T01:58:54;6.70;;;2.92;;
81026;SDS011;70506;49.320;8.446;2024-01-07T02:01:20;8.02;;;3.65;;
81026;SDS011;70506;49.320;8.446;2024-01-07T02:03:45;8.75;;;2.97;;
81026;SDS011;70506;49.320;8.446;2024-01-07T02:06:11;5.93;;;2.60;;
81026;SDS011;70506;49.320;8.446;2024-01-07T02:08:37;6.35;;;2.65;;
81026;SDS011;70506;49.320;8.446;2024-01-07T02:13:41;7.03;;;3.28;;
81026;SDS011;70506;49.320;8.446;2024-01-07T02:16:07;4.70;;;2.40;;
81026;SDS011;70506;49.320;8.446;2024-01-07T02:18:32;4.63;;;2.57;;
81026;SDS011;70506;49.320;8.446;2024-01-07T02:20:58;6.72;;;2.63;;
81026;SDS011;70506;49.320;8.446;2024-01-07T02:23:23;8.70;;;3.00;;
81026;SDS011;70506;49.320;8.446;2024-01-07T02:25:48;4.20;;;2.37;;
81026;SDS011;70506;49.320;8.446;2024-01-07T02:28:14;6.43;;;1.70;;
81026;SDS011;70506;49.320;8.446;2024-01-07T02:30:39;4.83;;;2.13;;
81026;SDS011;70506;49.320;8.446;2024-01-07T02:33:04;7.53;;;2.97;;
81026;SDS011;70506;49.320;8.446;2024-01-07T02:35:29;5.27;;;2.83;;
81026;SDS011;70506;49.320;8.446;2024-01-07T02:37:55;6.80;;;2.77;;
81026;SDS011;70506;49.320;8.446;2024-01-07T02:40:20;8.10;;;2.80;;
81026;SDS011;70506;49.320;8.446;2024-01-07T02:42:45;3.53;;;1.90;;
81026;SDS011;70506;49.320;8.446;2024-01-07T02:45:11;6.07;;;2.93;;
81026;SDS011;70506;49.320;8.446;2024-01-07T02:47:36;5.13;;;2.17;;
81026;SDS011;70506;49.320;8.446;2024-01-07T02:50:01;5.43;;;1.97;;
81026;SDS011;70506;49.320;8.446;2024-01-07T02:52:27;4.40;;;1.95;;
81026;SDS011;70506;49.320;8.446;2024-01-07T02:54:52;3.58;;;1.40;;
81026;SDS011;70506;49.320;8.446;2024-01-07T02:57:17;4.40;;;2.20;;
81026;SDS011;70506;49.320;8.446;2024-01-07T02:59:43;4.83;;;2.43;;
81026;SDS011;70506;49.320;8.446;2024-01-07T03:02:08;4.43;;;1.87;;
81026;SDS011;70506;49.320;8.446;2024-01-07T03:04:33;4.60;;;1.97;;
81026;SDS011;70506;49.320;8.446;2024-01-07T03:06:59;4.03;;;2.00;;
81026;SDS011;70506;49.320;8.446;2024-01-07T03:09:24;4.07;;;1.83;;
81026;SDS011;70506;49.320;8.446;2024-01-07T03:11:50;3.38;;;1.75;;
81026;SDS011;70506;49.320;8.446;2024-01-07T03:14:15;3.05;;;1.67;;
81026;SDS011;70506;49.320;8.446;2024-01-07T03:16:42;4.75;;;2.58;;
81026;SDS011;70506;49.320;8.446;2024-01-07T03:19:08;5.00;;;1.77;;
81026;SDS011;70506;49.320;8.446;2024-01-07T03:21:33;5.53;;;2.43;;
81026;SDS011;70506;49.320;8.446;2024-01-07T03:23:58;10.20;;;2.77;;
81026;SDS011;70506;49.320;8.446;2024-01-07T03:26:24;4.57;;;2.15;;
81026;SDS011;70506;49.320;8.446;2024-01-07T03:28:49;3.53;;;1.73;;
81026;SDS011;70506;49.320;8.446;2024-01-07T03:31:15;3.47;;;2.10;;
81026;SDS011;70506;49.320;8.446;2024-01-07T03:33:41;5.75;;;1.92;;
81026;SDS011;70506;49.320;8.446;2024-01-07T03:36:08;3.65;;;2.13;;
81026;SDS011;70506;49.320;8.446;2024-01-07T03:38:35;5.13;;;2.28;;
81026;SDS011;70506;49.320;8.446;2024-01-07T03:41:01;9.20;;;2.42;;
81026;SDS011;70506;49.320;8.446;2024-01-07T03:43:26;5.53;;;2.53;;
81026;SDS011;70506;49.320;8.446;2024-01-07T03:45:52;5.57;;;2.97;;
81026;SDS011;70506;49.320;8.446;2024-01-07T03:48:17;4.97;;;2.17;;
81026;SDS011;70506;49.320;8.446;2024-01-07T03:50:42;2.77;;;1.70;;
81026;SDS011;70506;49.320;8.446;2024-01-07T03:53:08;4.78;;;2.53;;
81026;SDS011;70506;49.320;8.446;2024-01-07T03:55:33;5.00;;;2.60;;
81026;SDS011;70506;49.320;8.446;2024-01-07T03:57:59;6.87;;;2.37;;
81026;SDS011;70506;49.320;8.446;2024-01-07T04:00:24;2.33;;;1.53;;
81026;SDS011;70506;49.320;8.446;2024-01-07T04:02:49;4.90;;;2.67;;
81026;SDS011;70506;49.320;8.446;2024-01-07T04:05:15;5.70;;;2.10;;
81026;SDS011;70506;49.320;8.446;2024-01-07T04:07:40;6.05;;;2.63;;
81026;SDS011;70506;49.320;8.446;2024-01-07T04:10:05;11.20;;;3.40;;
81026;SDS011;70506;49.320;8.446;2024-01-07T04:12:31;5.72;;;2.60;;
81026;SDS011;70506;49.320;8.446;2024-01-07T04:14:56;7.90;;;3.05;;
81026;SDS011;70506;49.320;8.446;2024-01-07T04:17:22;5.97;;;2.77;;
81026;SDS011;70506;49.320;8.446;2024-01-07T04:19:48;6.05;;;3.08;;
81026;SDS011;70506;49.320;8.446;2024-01-07T04:22:14;6.43;;;2.53;;
81026;SDS011;70506;49.320;8.446;2024-01-07T04:24:42;6.77;;;3.07;;
81026;SDS011;70506;49.320;8.446;2024-01-07T04:27:07;3.80;;;2.08;;
81026;SDS011;70506;49.320;8.446;2024-01-07T04:29:33;6.00;;;2.15;;
81026;SDS011;70506;49.320;8.446;2024-01-07T04:31:58;5.17;;;2.37;;
81026;SDS011;70506;49.320;8.446;2024-01-07T04:34:23;5.70;;;3.03;;
81026;SDS011;70506;49.320;8.446;2024-01-07T04:39:15;4.13;;;2.60;;
81026;SDS011;70506;49.320;8.446;2024-01-07T04:41:41;4.40;;;2.63;;
81026;SDS011;70506;49.320;8.446;2024-01-07T04:44:06;7.50;;;2.67;;
81026;SDS011;70506;49.320;8.446;2024-01-07T04:46:37;5.33;;;2.80;;
81026;SDS011;70506;49.320;8.446;2024-01-07T04:49:03;7.20;;;3.53;;
81026;SDS011;70506;49.320;8.446;2024-01-07T04:51:28;5.77;;;2.23;;
81026;SDS011;70506;49.320;8.446;2024-01-07T04:53:53;6.27;;;2.73;;
81026;SDS011;70506;49.320;8.446;2024-01-07T04:56:19;8.10;;;3.28;;
81026;SDS011;70506;49.320;8.446;2024-01-07T04:58:45;8.63;;;2.80;;
81026;SDS011;70506;49.320;8.446;2024-01-07T05:01:10;5.00;;;2.53;;
81026;SDS011;70506;49.320;8.446;2024-01-07T05:03:35;4.60;;;2.60;;
81026;SDS011;70506;49.320;8.446;2024-01-07T05:06:02;9.18;;;3.17;;
81026;SDS011;70506;49.320;8.446;2024-01-07T05:08:28;5.90;;;3.28;;
81026;SDS011;70506;49.320;8.446;2024-01-07T05:10:53;5.40;;;2.70;;
81026;SDS011;70506;49.320;8.446;2024-01-07T05:13:19;6.70;;;2.92;;
81026;SDS011;70506;49.320;8.446;2024-01-07T05:15:44;7.27;;;2.70;;
81026;SDS011;70506;49.320;8.446;2024-01-07T05:18:11;5.68;;;2.58;;
81026;SDS011;70506;49.320;8.446;2024-01-07T05:20:37;5.18;;;2.20;;
81026;SDS011;70506;49.320;8.446;2024-01-07T05:23:02;5.97;;;2.60;;
81026;SDS011;70506;49.320;8.446;2024-01-07T05:25:27;7.40;;;3.97;;
81026;SDS011;70506;49.320;8.446;2024-01-07T05:27:53;9.13;;;2.70;;
81026;SDS011;70506;49.320;8.446;2024-01-07T05:30:18;8.25;;;3.42;;
81026;SDS011;70506;49.320;8.446;2024-01-07T05:32:43;7.17;;;3.20;;
81026;SDS011;70506;49.320;8.446;2024-01-07T05:35:09;5.13;;;2.23;;
81026;SDS011;70506;49.320;8.446;2024-01-07T05:37:34;5.97;;;2.80;;
81026;SDS011;70506;49.320;8.446;2024-01-07T05:39:59;6.27;;;2.77;;
81026;SDS011;70506;49.320;8.446;2024-01-07T05:42:25;5.63;;;2.37;;
81026;SDS011;70506;49.320;8.446;2024-01-07T05:44:50;7.38;;;2.88;;
81026;SDS011;70506;49.320;8.446;2024-01-07T05:47:15;6.07;;;3.07;;
81026;SDS011;70506;49.320;8.446;2024-01-07T05:49:41;6.90;;;3.13;;
81026;SDS011;70506;49.320;8.446;2024-01-07T05:52:07;8.37;;;3.43;;
81026;SDS011;70506;49.320;8.446;2024-01-07T05:54:32;4.60;;;2.40;;
81026;SDS011;70506;49.320;8.446;2024-01-07T05:56:57;7.57;;;3.67;;
81026;SDS011;70506;49.320;8.446;2024-01-07T05:59:23;4.80;;;2.10;;
81026;SDS011;70506;49.320;8.446;2024-01-07T06:01:48;4.37;;;2.33;;
81026;SDS011;70506;49.320;8.446;2024-01-07T06:04:13;11.75;;;3.08;;
81026;SDS011;70506;49.320;8.446;2024-01-07T06:06:39;6.03;;;2.10;;
81026;SDS011;70506;49.320;8.446;2024-01-07T06:09:04;5.43;;;2.33;;
81026;SDS011;70506;49.320;8.446;2024-01-07T06:11:29;3.67;;;2.10;;
81026;SDS011;70506;49.320;8.446;2024-01-07T06:13:55;4.33;;;2.17;;
81026;SDS011;70506;49.320;8.446;2024-01-07T06:16:20;6.20;;;3.00;;
81026;SDS011;70506;49.320;8.446;2024-01-07T06:18:45;4.90;;;2.20;;
81026;SDS011;70506;49.320;8.446;2024-01-07T06:21:10;5.77;;;2.77;;
81026;SDS011;70506;49.320;8.446;2024-01-07T06:23:36;5.77;;;2.67;;
81026;SDS011;70506;49.320;8.446;2024-01-07T06:26:04;7.43;;;3.17;;
81026;SDS011;70506;49.320;8.446;2024-01-07T06:28:30;6.80;;;2.78;;
81026;SDS011;70506;49.320;8.446;2024-01-07T06:30:55;5.57;;;1.85;;
81026;SDS011;70506;49.320;8.446;2024-01-07T06:33:20;4.80;;;2.67;;
81026;SDS011;70506;49.320;8.446;2024-01-07T06:35:46;8.57;;;3.10;;
81026;SDS011;70506;49.320;8.446;2024-01-07T06:38:11;8.45;;;2.60;;
81026;SDS011;70506;49.320;8.446;2024-01-07T06:40:36;4.93;;;2.30;;
81026;SDS011;70506;49.320;8.446;2024-01-07T06:43:02;5.25;;;2.83;;
81026;SDS011;70506;49.320;8.446;2024-01-07T06:45:27;5.33;;;2.57;;
81026;SDS011;70506;49.320;8.446;2024-01-07T06:47:52;8.30;;;3.80;;
81026;SDS011;70506;49.320;8.446;2024-01-07T06:50:19;8.18;;;3.55;;
81026;SDS011;70506;49.320;8.446;2024-01-07T06:52:45;11.63;;;3.95;;
81026;SDS011;70506;49.320;8.446;2024-01-07T06:55:10;6.07;;;3.33;;
81026;SDS011;70506;49.320;8.446;2024-01-07T06:57:36;6.37;;;3.07;;
81026;SDS011;70506;49.320;8.446;2024-01-07T07:00:01;6.57;;;3.97;;
81026;SDS011;70506;49.320;8.446;2024-01-07T07:02:28;8.35;;;3.30;;
81026;SDS011;70506;49.320;8.446;2024-01-07T07:04:53;8.07;;;3.43;;
81026;SDS011;70506;49.320;8.446;2024-01-07T07:07:18;10.50;;;3.47;;
81026;SDS011;70506;49.320;8.446;2024-01-07T07:09:44;5.83;;;3.20;;
81026;SDS011;70506;49.320;8.446;2024-01-07T07:12:09;7.07;;;3.00;;
81026;SDS011;70506;49.320;8.446;2024-01-07T07:14:35;4.75;;;2.75;;
81026;SDS011;70506;49.320;8.446;2024-01-07T07:17:00;7.77;;;2.87;;
81026;SDS011;70506;49.320;8.446;2024-01-07T07:19:26;10.97;;;4.93;;
81026;SDS011;70506;49.320;8.446;2024-01-07T07:21:51;5.72;;;3.17;;
81026;SDS011;70506;49.320;8.446;2024-01-07T07:24:16;6.40;;;3.70;;
81026;SDS011;70506;49.320;8.446;2024-01-07T07:26:42;9.33;;;3.93;;
81026;SDS011;70506;49.320;8.446;2024-01-07T07:29:08;7.60;;;3.08;;
81026;SDS011;70506;49.320;8.446;2024-01-07T07:31:34;6.50;;;3.00;;
81026;SDS011;70506;49.320;8.446;2024-01-07T07:34:00;12.05;;;4.00;;
81026;SDS011;70506;49.320;8.446;2024-01-07T07:36:25;8.77;;;3.60;;
81026;SDS011;70506;49.320;8.446;2024-01-07T07:38:51;9.63;;;3.50;;
81026;SDS011;70506;49.320;8.446;2024-01-07T07:41:16;11.05;;;3.55;;
81026;SDS011;70506;49.320;8.446;2024-01-07T07:43:42;8.40;;;3.40;;
81026;SDS011;70506;49.320;8.446;2024-01-07T07:46:07;8.77;;;3.70;;
81026;SDS011;70506;49.320;8.446;2024-01-07T07:48:32;6.10;;;2.77;;
81026;SDS011;70506;49.320;8.446;2024-01-07T07:50:57;7.17;;;3.93;;
81026;SDS011;70506;49.320;8.446;2024-01-07T07:53:23;10.87;;;3.70;;
81026;SDS011;70506;49.320;8.446;2024-01-07T07:55:48;7.47;;;3.80;;
81026;SDS011;70506;49.320;8.446;2024-01-07T07:58:14;8.02;;;3.30;;
81026;SDS011;70506;49.320;8.446;2024-01-07T08:00:40;8.00;;;3.67;;
81026;SDS011;70506;49.320;8.446;2024-01-07T08:03:05;7.47;;;3.63;;
81026;SDS011;70506;49.320;8.446;2024-01-07T08:05:31;7.03;;;4.13;;
81026;SDS011;70506;49.320;8.446;2024-01-07T08:07:56;7.13;;;2.97;;
81026;SDS011;70506;49.320;8.446;2024-01-07T08:10:21;5.03;;;3.07;;
81026;SDS011;70506;49.320;8.446;2024-01-07T08:12:47;8.85;;;3.42;;
81026;SDS011;70506;49.320;8.446;2024-01-07T08:15:14;8.07;;;4.10;;
81026;SDS011;70506;49.320;8.446;2024-01-07T08:17:39;10.05;;;4.72;;
81026;SDS011;70506;49.320;8.446;2024-01-07T08:20:05;9.50;;;3.90;;
81026;SDS011;70506;49.320;8.446;2024-01-07T08:22:31;8.88;;;3.67;;
81026;SDS011;70506;49.320;8.446;2024-01-07T08:24:56;8.00;;;4.00;;
81026;SDS011;70506;49.320;8.446;2024-01-07T08:27:21;8.35;;;3.25;;
81026;SDS011;70506;49.320;8.446;2024-01-07T08:29:47;7.47;;;3.83;;
81026;SDS011;70506;49.320;8.446;2024-01-07T08:32:12;7.60;;;3.63;;
81026;SDS011;70506;49.320;8.446;2024-01-07T08:34:38;8.15;;;4.43;;
81026;SDS011;70506;49.320;8.446;2024-01-07T08:37:04;8.82;;;4.07;;
81026;SDS011;70506;49.320;8.446;2024-01-07T08:39:29;9.80;;;3.63;;
81026;SDS011;70506;49.320;8.446;2024-01-07T08:41:55;10.52;;;3.35;;
81026;SDS011;70506;49.320;8.446;2024-01-07T08:44:20;9.60;;;3.83;;
81026;SDS011;70506;49.320;8.446;2024-01-07T08:46:45;8.68;;;3.67;;
81026;SDS011;70506;49.320;8.446;2024-01-07T08:49:11;8.03;;;3.50;;
81026;SDS011;70506;49.320;8.446;2024-01-07T08:51:36;9.07;;;3.27;;
81026;SDS011;70506;49.320;8.446;2024-01-07T08:54:02;10.38;;;4.47;;
81026;SDS011;70506;49.320;8.446;2024-01-07T08:56:28;6.75;;;3.10;;
81026;SDS011;70506;49.320;8.446;2024-01-07T08:58:53;10.80;;;3.85;;
81026;SDS011;70506;49.320;8.446;2024-01-07T09:01:18;12.37;;;3.87;;
81026;SDS011;70506;49.320;8.446;2024-01-07T09:03:44;14.80;;;4.68;;
81026;SDS011;70506;49.320;8.446;2024-01-07T09:06:09;9.80;;;3.70;;
81026;SDS011;70506;49.320;8.446;2024-01-07T09:08:34;12.90;;;5.30;;
81026;SDS011;70506;49.320;8.446;2024-01-07T09:11:00;8.32;;;3.83;;
81026;SDS011;70506;49.320;8.446;2024-01-07T09:13:26;8.18;;;3.80;;
81026;SDS011;70506;49.320;8.446;2024-01-07T09:15:52;9.88;;;3.92;;
81026;SDS011;70506;49.320;8.446;2024-01-07T09:18:17;10.33;;;4.87;;
81026;SDS011;70506;49.320;8.446;2024-01-07T09:20:43;12.27;;;3.83;;
81026;SDS011;70506;49.320;8.446;2024-01-07T09:23:09;7.68;;;3.67;;
81026;SDS011;70506;49.320;8.446;2024-01-07T09:25:34;9.50;;;4.87;;
81026;SDS011;70506;49.320;8.446;2024-01-07T09:27:59;7.60;;;3.13;;
81026;SDS011;70506;49.320;8.446;2024-01-07T09:30:25;8.23;;;3.65;;
81026;SDS011;70506;49.320;8.446;2024-01-07T09:32:50;6.73;;;3.60;;
81026;SDS011;70506;49.320;8.446;2024-01-07T09:35:16;7.50;;;4.18;;
81026;SDS011;70506;49.320;8.446;2024-01-07T09:37:41;6.37;;;3.60;;
81026;SDS011;70506;49.320;8.446;2024-01-07T09:40:06;7.47;;;2.93;;
81026;SDS011;70506;49.320;8.446;2024-01-07T09:42:32;10.18;;;4.60;;
81026;SDS011;70506;49.320;8.446;2024-01-07T09:45:00;7.97;;;4.07;;
81026;SDS011;70506;49.320;8.446;2024-01-07T09:47:27;18.75;;;3.30;;
81026;SDS011;70506;49.320;8.446;2024-01-07T09:49:52;6.75;;;4.22;;
81026;SDS011;70506;49.320;8.446;2024-01-07T09:52:18;7.00;;;3.60;;
81026;SDS011;70506;49.320;8.446;2024-01-07T09:54:45;9.90;;;3.80;;
81026;SDS011;70506;49.320;8.446;2024-01-07T09:57:18;7.60;;;3.50;;
81026;SDS011;70506;49.320;8.446;2024-01-07T09:59:44;8.15;;;3.17;;
81026;SDS011;70506;49.320;8.446;2024-01-07T10:02:11;6.97;;;3.72;;
81026;SDS011;70506;49.320;8.446;2024-01-07T10:04:36;7.13;;;3.40;;
81026;SDS011;70506;49.320;8.446;2024-01-07T10:07:02;6.50;;;2.85;;
81026;SDS011;70506;49.320;8.446;2024-01-07T10:09:32;5.37;;;2.50;;
81026;SDS011;70506;49.320;8.446;2024-01-07T10:11:58;5.60;;;3.10;;
81026;SDS011;70506;49.320;8.446;2024-01-07T10:14:24;6.23;;;3.53;;
81026;SDS011;70506;49.320;8.446;2024-01-07T10:16:52;9.15;;;3.10;;
81026;SDS011;70506;49.320;8.446;2024-01-07T10:19:21;5.45;;;2.53;;
81026;SDS011;70506;49.320;8.446;2024-01-07T10:21:58;8.00;;;3.22;;
81026;SDS011;70506;49.320;8.446;2024-01-07T10:24:39;5.43;;;2.60;;
81026;SDS011;70506;49.320;8.446;2024-01-07T10:27:05;7.95;;;3.22;;
81026;SDS011;70506;49.320;8.446;2024-01-07T10:29:31;4.40;;;2.35;;
81026;SDS011;70506;49.320;8.446;2024-01-07T10:31:58;4.57;;;2.85;;
81026;SDS011;70506;49.320;8.446;2024-01-07T10:34:24;4.65;;;2.47;;
81026;SDS011;70506;49.320;8.446;2024-01-07T10:36:53;7.22;;;3.05;;
81026;SDS011;70506;49.320;8.446;2024-01-07T10:39:21;7.60;;;3.00;;
81026;SDS011;70506;49.320;8.446;2024-01-07T10:41:46;4.93;;;2.37;;
81026;SDS011;70506;49.320;8.446;2024-01-07T10:44:12;3.95;;;2.47;;
81026;SDS011;70506;49.320;8.446;2024-01-07T10:46:38;5.22;;;2.83;;
81026;SDS011;70506;49.320;8.446;2024-01-07T10:49:04;8.38;;;3.00;;
81026;SDS011;70506;49.320;8.446;2024-01-07T10:51:33;6.30;;;2.60;;
81026;SDS011;70506;49.320;8.446;2024-01-07T10:53:59;5.80;;;2.75;;
81026;SDS011;70506;49.320;8.446;2024-01-07T10:56:28;8.05;;;2.95;;
81026;SDS011;70506;49.320;8.446;2024-01-07T10:59:07;5.47;;;2.35;;
81026;SDS011;70506;49.320;8.446;2024-01-07T11:01:33;7.80;;;2.42;;
81026;SDS011;70506;49.320;8.446;2024-01-07T11:04:00;4.18;;;2.05;;
81026;SDS011;70506;49.320;8.446;2024-01-07T11:09:20;4.88;;;2.45;;
81026;SDS011;70506;49.320;8.446;2024-01-07T11:11:49;7.55;;;2.88;;
81026;SDS011;70506;49.320;8.446;2024-01-07T11:20:01;4.85;;;1.77;;
81026;SDS011;70506;49.320;8.446;2024-01-07T11:22:27;3.53;;;1.52;;
81026;SDS011;70506;49.320;8.446;2024-01-07T11:24:57;5.65;;;2.08;;
81026;SDS011;70506;49.320;8.446;2024-01-07T11:27:24;6.35;;;2.42;;
81026;SDS011;70506;49.320;8.446;2024-01-07T11:32:21;6.22;;;1.92;;
81026;SDS011;70506;49.320;8.446;2024-01-07T11:34:52;3.38;;;1.80;;
81026;SDS011;70506;49.320;8.446;2024-01-07T11:37:18;5.28;;;2.55;;
81026;SDS011;70506;49.320;8.446;2024-01-07T11:39:46;4.75;;;1.73;;
81026;SDS011;70506;49.320;8.446;2024-01-07T11:44:44;4.18;;;1.88;;
81026;SDS011;70506;49.320;8.446;2024-01-07T11:47:14;6.22;;;2.03;;
81026;SDS011;70506;49.320;8.446;2024-01-07T11:49:41;5.95;;;2.42;;
81026;SDS011;70506;49.320;8.446;2024-01-07T11:52:07;4.03;;;2.17;;
81026;SDS011;70506;49.320;8.446;2024-01-07T11:54:34;6.57;;;3.05;;
81026;SDS011;70506;49.320;8.446;2024-01-07T11:56:59;5.55;;;2.35;;
81026;SDS011;70506;49.320;8.446;2024-01-07T11:59:26;3.60;;;1.88;;
81026;SDS011;70506;49.320;8.446;2024-01-07T12:01:51;4.15;;;2.17;;
81026;SDS011;70506;49.320;8.446;2024-01-07T12:04:17;5.45;;;2.58;;
81026;SDS011;70506;49.320;8.446;2024-01-07T12:06:43;3.83;;;1.97;;
81026;SDS011;70506;49.320;8.446;2024-01-07T12:09:08;5.35;;;2.15;;
81026;SDS011;70506;49.320;8.446;2024-01-07T12:11:37;8.93;;;2.22;;
81026;SDS011;70506;49.320;8.446;2024-01-07T12:14:02;4.38;;;2.55;;
81026;SDS011;70506;49.320;8.446;2024-01-07T12:16:29;4.72;;;2.28;;
81026;SDS011;70506;49.320;8.446;2024-01-07T12:18:54;4.57;;;2.25;;
81026;SDS011;70506;49.320;8.446;2024-01-07T12:21:20;5.03;;;2.20;;
81026;SDS011;70506;49.320;8.446;2024-01-07T12:23:47;3.90;;;2.13;;
81026;SDS011;70506;49.320;8.446;2024-01-07T12:26:14;5.70;;;2.20;;
81026;SDS011;70506;49.320;8.446;2024-01-07T12:28:39;3.90;;;1.93;;
81026;SDS011;70506;49.320;8.446;2024-01-07T12:31:05;3.33;;;1.83;;
81026;SDS011;70506;49.320;8.446;2024-01-07T12:33:30;4.85;;;2.35;;
81026;SDS011;70506;49.320;8.446;2024-01-07T12:35:57;5.68;;;2.10;;
81026;SDS011;70506;49.320;8.446;2024-01-07T12:38:25;6.03;;;2.50;;
81026;SDS011;70506;49.320;8.446;2024-01-07T12:40:52;3.58;;;2.20;;
81026;SDS011;70506;49.320;8.446;2024-01-07T12:43:17;4.03;;;2.28;;
81026;SDS011;70506;49.320;8.446;2024-01-07T12:45:43;3.45;;;2.25;;
81026;SDS011;70506;49.320;8.446;2024-01-07T12:48:09;4.20;;;2.05;;
81026;SDS011;70506;49.320;8.446;2024-01-07T12:50:34;5.43;;;2.10;;
81026;SDS011;70506;49.320;8.446;2024-01-07T12:52:59;4.03;;;1.77;;
81026;SDS011;70506;49.320;8.446;2024-01-07T12:55:26;4.03;;;2.15;;
81026;SDS011;70506;49.320;8.446;2024-01-07T12:57:51;5.07;;;2.22;;
81026;SDS011;70506;49.320;8.446;2024-01-07T13:00:17;3.97;;;2.13;;
81026;SDS011;70506;49.320;8.446;2024-01-07T13:02:42;3.03;;;1.65;;
81026;SDS011;70506;49.320;8.446;2024-01-07T13:05:07;4.07;;;2.13;;
81026;SDS011;70506;49.320;8.446;2024-01-07T13:07:33;7.13;;;2.47;;
81026;SDS011;70506;49.320;8.446;2024-01-07T13:09:59;3.60;;;2.33;;
81026;SDS011;70506;49.320;8.446;2024-01-07T13:12:24;3.47;;;1.83;;
81026;SDS011;70506;49.320;8.446;2024-01-07T13:14:51;3.58;;;1.75;;
81026;SDS011;70506;49.320;8.446;2024-01-07T13:17:16;5.40;;;2.43;;
81026;SDS011;70506;49.320;8.446;2024-01-07T13:19:41;4.20;;;1.97;;
81026;SDS011;70506;49.320;8.446;2024-01-07T13:22:07;3.63;;;2.05;;
81026;SDS011;70506;49.320;8.446;2024-01-07T13:24:33;4.32;;;2.20;;
81026;SDS011;70506;49.320;8.446;2024-01-07T13:26:58;4.40;;;2.17;;
81026;SDS011;70506;49.320;8.446;2024-01-07T13:29:23;5.82;;;2.95;;
81026;SDS011;70506;49.320;8.446;2024-01-07T13:31:49;5.28;;;2.22;;
81026;SDS011;70506;49.320;8.446;2024-01-07T13:34:15;5.60;;;2.67;;
81026;SDS011;70506;49.320;8.446;2024-01-07T13:36:40;4.82;;;2.70;;
81026;SDS011;70506;49.320;8.446;2024-01-07T13:39:05;5.15;;;2.40;;
81026;SDS011;70506;49.320;8.446;2024-01-07T13:41:32;5.28;;;2.30;;
81026;SDS011;70506;49.320;8.446;2024-01-07T13:43:59;8.40;;;2.88;;
81026;SDS011;70506;49.320;8.446;2024-01-07T13:46:24;3.95;;;1.95;;
81026;SDS011;70506;49.320;8.446;2024-01-07T13:48:50;5.35;;;2.13;;
81026;SDS011;70506;49.320;8.446;2024-01-07T13:51:16;5.50;;;2.80;;
81026;SDS011;70506;49.320;8.446;2024-01-07T13:53:42;5.97;;;2.22;;
81026;SDS011;70506;49.320;8.446;2024-01-07T13:56:07;3.20;;;1.67;;
81026;SDS011;70506;49.320;8.446;2024-01-07T13:58:33;4.65;;;2.50;;
81026;SDS011;70506;49.320;8.446;2024-01-07T14:00:58;5.70;;;1.97;;
81026;SDS011;70506;49.320;8.446;2024-01-07T14:03:23;6.03;;;2.33;;
81026;SDS011;70506;49.320;8.446;2024-01-07T14:05:49;3.90;;;2.25;;
81026;SDS011;70506;49.320;8.446;2024-01-07T14:08:14;7.20;;;2.47;;
81026;SDS011;70506;49.320;8.446;2024-01-07T14:10:40;4.55;;;1.83;;
81026;SDS011;70506;49.320;8.446;2024-01-07T14:13:05;4.27;;;2.17;;
81026;SDS011;70506;49.320;8.446;2024-01-07T14:15:31;4.72;;;2.67;;
81026;SDS011;70506;49.320;8.446;2024-01-07T14:17:57;5.10;;;2.33;;
81026;SDS011;70506;49.320;8.446;2024-01-07T14:20:22;5.23;;;2.80;;
81026;SDS011;70506;49.320;8.446;2024-01-07T14:22:47;3.83;;;1.87;;
81026;SDS011;70506;49.320;8.446;2024-01-07T14:25:13;5.00;;;2.57;;
81026;SDS011;70506;49.320;8.446;2024-01-07T14:27:42;7.30;;;2.08;;
81026;SDS011;70506;49.320;8.446;2024-01-07T14:30:08;4.10;;;1.80;;
81026;SDS011;70506;49.320;8.446;2024-01-07T14:32:34;4.63;;;2.53;;
81026;SDS011;70506;49.320;8.446;2024-01-07T14:35:01;6.05;;;2.67;;
81026;SDS011;70506;49.320;8.446;2024-01-07T14:37:27;4.75;;;2.20;;
81026;SDS011;70506;49.320;8.446;2024-01-07T14:39:52;5.22;;;2.83;;
81026;SDS011;70506;49.320;8.446;2024-01-07T14:42:18;3.00;;;1.35;;
81026;SDS011;70506;49.320;8.446;2024-01-07T14:44:43;4.20;;;1.70;;
81026;SDS011;70506;49.320;8.446;2024-01-07T14:47:09;5.15;;;2.10;;
81026;SDS011;70506;49.320;8.446;2024-01-07T14:49:34;4.15;;;2.35;;
81026;SDS011;70506;49.320;8.446;2024-01-07T14:51:59;8.95;;;2.03;;
81026;SDS011;70506;49.320;8.446;2024-01-07T14:54:25;3.28;;;1.80;;